Time;durP1;ratioP1;P1;durP2;ratioP2;P2;SDS_P1;SDS_P2;PMS_P1;PMS_P2;Temp;Humidity;BMP_temperature;BMP_pressure;BME280_temperature;BME280_humidity;BME280_pressure;Samples;Min_cycle;Max_cycle;Signal;HPM_P1;HPM_P2
2021/01/16 00:00:21;;;;;;;9.63;7.47;;;;;;;-1.04;100.00;96110.63;5112754;28;20257;-85
2021/01/16 00:02:48;;;;;;;8.33;6.80;;;;;;;-1.08;100.00;96110.88;5112579;28;20192;-85
2021/01/16 00:05:17;;;;;;;7.90;6.77;;;;;;;-1.07;100.00;96105.63;5112467;28;20195;-85
2021/01/16 00:07:46;;;;;;;9.07;7.07;;;;;;;-1.30;100.00;96112.16;5112765;28;20654;-85
2021/01/16 00:10:15;;;;;;;7.13;6.43;;;;;;;-1.44;100.00;96115.53;5112599;28;20663;-84
2021/01/16 00:12:43;;;;;;;7.27;5.93;;;;;;;-1.07;100.00;96112.56;5112397;28;20223;-85
2021/01/16 00:15:11;;;;;;;10.57;8.13;;;;;;;-1.05;100.00;96110.69;5112359;28;20207;-85
2021/01/16 00:17:38;;;;;;;9.83;8.30;;;;;;;-1.11;100.00;96116.22;5112400;28;20206;-85
2021/01/16 00:20:06;;;;;;;9.37;8.37;;;;;;;-1.12;100.00;96117.97;5112811;28;20609;-85
2021/01/16 00:22:33;;;;;;;11.00;8.63;;;;;;;-1.16;100.00;96125.97;5112340;28;20192;-84
2021/01/16 00:25:01;;;;;;;11.83;9.20;;;;;;;-1.12;100.00;96119.72;5112846;28;20200;-85
2021/01/16 00:27:27;;;;;;;10.10;7.57;;;;;;;-1.09;100.00;96114.38;5112460;27;20234;-85
2021/01/16 00:29:55;;;;;;;9.20;8.27;;;;;;;-1.02;100.00;96116.50;5112504;28;20248;-85
2021/01/16 00:32:21;;;;;;;8.43;6.17;;;;;;;-0.95;100.00;96106.63;5112062;28;20223;-84
2021/01/16 00:34:48;;;;;;;6.60;5.43;;;;;;;-0.78;100.00;96113.38;5112259;28;20252;-84
2021/01/16 00:37:15;;;;;;;6.50;5.87;;;;;;;-0.67;100.00;96100.63;5114651;28;20238;-85
2021/01/16 00:39:42;;;;;;;8.60;7.47;;;;;;;-0.75;100.00;96103.69;5116666;28;20671;-85
2021/01/16 00:42:10;;;;;;;7.20;6.10;;;;;;;-0.60;100.00;96103.66;5116443;28;20223;-85
2021/01/16 00:44:37;;;;;;;8.30;6.53;;;;;;;-0.72;100.00;96103.50;5116525;27;20626;-85
2021/01/16 00:47:03;;;;;;;6.10;5.47;;;;;;;-1.05;100.00;96108.13;5116324;28;20195;-85
2021/01/16 00:49:30;;;;;;;7.67;6.63;;;;;;;-1.08;100.00;96105.72;5116361;28;20285;-85
2021/01/16 00:51:57;;;;;;;7.27;6.27;;;;;;;-0.79;100.00;96101.41;5116077;28;20297;-84
2021/01/16 00:54:24;;;;;;;13.33;8.93;;;;;;;-0.91;100.00;96102.13;5116107;28;20239;-84
2021/01/16 00:56:52;;;;;;;9.00;7.37;;;;;;;-0.95;100.00;96101.47;5116013;28;20199;-84
2021/01/16 00:59:20;;;;;;;6.90;6.10;;;;;;;-0.87;100.00;96101.84;5115282;28;20191;-84
2021/01/16 01:01:47;;;;;;;8.83;6.40;;;;;;;-1.03;100.00;96095.97;5115424;28;20230;-85
2021/01/16 01:04:14;;;;;;;7.30;6.23;;;;;;;-1.07;100.00;96094.50;5115887;28;20200;-85
2021/01/16 01:06:40;;;;;;;8.73;7.30;;;;;;;-1.28;100.00;96094.84;5116267;28;20199;-84
2021/01/16 01:09:07;;;;;;;15.73;9.77;;;;;;;-1.30;100.00;96096.66;5116350;28;20278;-85
2021/01/16 01:11:34;;;;;;;10.23;8.03;;;;;;;-1.23;100.00;96097.97;5115932;28;20223;-85
2021/01/16 01:14:01;;;;;;;9.77;8.17;;;;;;;-1.17;100.00;96091.63;5115731;28;20199;-85
2021/01/16 01:16:28;;;;;;;10.40;7.57;;;;;;;-1.15;100.00;96089.78;5116102;28;20667;-85
2021/01/16 01:18:55;;;;;;;7.07;6.20;;;;;;;-1.07;100.00;96086.75;5116377;28;20195;-85
2021/01/16 01:21:22;;;;;;;8.47;6.63;;;;;;;-1.04;100.00;96079.66;5115606;28;20202;-85
2021/01/16 01:23:49;;;;;;;7.87;6.87;;;;;;;-1.08;100.00;96075.59;5116053;28;20195;-85
2021/01/16 01:26:16;;;;;;;6.67;5.53;;;;;;;-1.14;100.00;96077.69;5115698;28;20198;-84
2021/01/16 01:28:43;;;;;;;7.80;6.27;;;;;;;-1.14;100.00;96075.13;5115668;28;20195;-85
2021/01/16 01:31:10;;;;;;;7.07;6.13;;;;;;;-0.99;100.00;96081.94;5115614;28;20245;-84
2021/01/16 01:33:37;;;;;;;6.40;5.80;;;;;;;-1.05;100.00;96083.13;5115139;28;20216;-85
2021/01/16 01:36:05;;;;;;;7.60;6.10;;;;;;;-1.12;100.00;96078.44;5115598;28;20199;-84
2021/01/16 01:38:32;;;;;;;7.40;6.57;;;;;;;-1.14;100.00;96085.44;5115476;28;20726;-84
2021/01/16 01:41:00;;;;;;;7.63;6.07;;;;;;;-1.03;100.00;96077.91;5115201;28;20200;-85
2021/01/16 01:43:27;;;;;;;7.30;6.30;;;;;;;-0.90;100.00;96077.97;5110727;28;20294;-84
2021/01/16 01:45:54;;;;;;;7.90;5.50;;;;;;;-0.90;100.00;96077.97;5112085;28;20195;-84
2021/01/16 01:48:22;;;;;;;6.47;5.50;;;;;;;-0.78;100.00;96077.25;5113151;28;20197;-84
2021/01/16 01:50:50;;;;;;;6.20;5.17;;;;;;;-0.75;100.00;96077.88;5113379;28;20196;-85
2021/01/16 01:53:19;;;;;;;7.07;6.37;;;;;;;-0.62;100.00;96077.13;5112690;28;20220;-84
2021/01/16 01:55:50;;;;;;;12.23;10.43;;;;;;;-0.81;100.00;96073.09;5112532;28;20223;-84
2021/01/16 01:58:18;;;;;;;18.17;13.20;;;;;;;-0.85;100.00;96073.38;5113372;28;20183;-84
2021/01/16 02:00:46;;;;;;;20.23;16.33;;;;;;;-0.80;100.00;96069.56;5112741;28;20252;-84
2021/01/16 02:03:15;;;;;;;24.40;16.87;;;;;;;-1.03;100.00;96075.31;5112760;28;20246;-84
2021/01/16 02:05:42;;;;;;;8.50;6.70;;;;;;;-1.39;100.00;96078.31;5112734;28;20199;-84
2021/01/16 02:08:10;;;;;;;7.33;6.50;;;;;;;-1.32;100.00;96085.59;5111849;28;20195;-84
2021/01/16 02:10:37;;;;;;;8.37;6.67;;;;;;;-1.18;100.00;96078.81;5112556;28;20286;-85
2021/01/16 02:13:04;;;;;;;6.77;6.07;;;;;;;-1.20;100.00;96077.16;5112448;28;20764;-84
2021/01/16 02:15:40;;;;;;;9.53;8.50;;;;;;;-1.12;100.00;96074.13;5112722;28;20215;-84
2021/01/16 02:18:15;;;;;;;9.30;8.33;;;;;;;-1.10;100.00;96089.50;5112383;28;20195;-84
2021/01/16 02:20:46;;;;;;;11.73;9.03;;;;;;;-1.04;100.00;96076.22;5112596;28;20349;-84
2021/01/16 02:23:29;;;;;;;11.20;8.07;;;;;;;-1.07;100.00;96081.59;5112558;28;20231;-85
2021/01/16 02:26:37;;;;;;;6.70;6.00;;;;;;;-1.15;100.00;96070.88;5112820;28;20207;-84
2021/01/16 02:29:08;;;;;;;6.87;5.53;;;;;;;-1.22;100.00;96081.56;5112801;28;20191;-85
2021/01/16 02:31:40;;;;;;;6.47;5.60;;;;;;;-1.21;100.00;96078.09;5112458;28;20679;-84
2021/01/16 02:34:11;;;;;;;5.93;5.33;;;;;;;-1.05;100.00;96066.84;5112393;28;20203;-83
2021/01/16 02:36:55;;;;;;;9.40;6.17;;;;;;;-1.07;100.00;96071.28;5112059;28;20199;-84
2021/01/16 02:39:29;;;;;;;6.30;5.67;;;;;;;-0.97;100.00;96062.88;5112602;28;20278;-84
2021/01/16 02:42:04;;;;;;;8.03;6.30;;;;;;;-1.01;100.00;96060.56;5112222;28;20196;-84
2021/01/16 02:44:45;;;;;;;8.40;6.67;;;;;;;-1.04;100.00;96056.44;5111923;28;20213;-84
2021/01/16 02:47:23;;;;;;;7.60;6.40;;;;;;;-1.01;100.00;96048.50;5111738;28;20199;-84
2021/01/16 02:49:53;;;;;;;7.30;5.97;;;;;;;-1.07;100.00;96050.66;5112428;28;20196;-84
2021/01/16 02:52:21;;;;;;;8.03;6.63;;;;;;;-0.88;100.00;96051.16;5111963;28;20663;-82
2021/01/16 02:54:49;;;;;;;13.30;7.90;;;;;;;-0.93;100.00;96044.66;5111744;28;20647;-83
2021/01/16 02:57:16;;;;;;;9.03;7.93;;;;;;;-0.94;100.00;96046.38;5111900;28;20736;-84
2021/01/16 02:59:46;;;;;;;8.80;7.90;;;;;;;-0.85;100.00;96050.97;5111314;27;20720;-85
2021/01/16 03:02:14;;;;;;;9.30;6.73;;;;;;;-1.01;100.00;96050.25;5112077;28;20210;-85
2021/01/16 03:04:42;;;;;;;8.80;7.63;;;;;;;-1.02;100.00;96046.03;5112142;28;20691;-86
2021/01/16 03:07:11;;;;;;;11.63;8.30;;;;;;;-1.07;100.00;96051.47;5111726;28;20230;-86
2021/01/16 03:09:39;;;;;;;8.30;7.40;;;;;;;-1.01;100.00;96045.91;5111739;28;20187;-84
2021/01/16 03:12:08;;;;;;;9.40;7.07;;;;;;;-1.21;100.00;96041.97;5111104;28;20280;-85
2021/01/16 03:14:36;;;;;;;9.60;7.60;;;;;;;-1.17;100.00;96040.06;5111662;28;20195;-85
2021/01/16 03:17:10;;;;;;;10.60;7.77;;;;;;;-1.08;100.00;96041.22;5111966;28;20196;-86
2021/01/16 03:19:38;;;;;;;12.17;8.00;;;;;;;-1.00;100.00;96033.88;5112098;28;20259;-84
2021/01/16 03:22:23;;;;;;;8.07;7.27;;;;;;;-1.07;100.00;96030.00;5111777;28;20192;-85
2021/01/16 03:24:52;;;;;;;5.37;4.83;;;;;;;-1.01;100.00;96029.63;5111785;28;20215;-85
2021/01/16 03:27:19;;;;;;;5.77;5.13;;;;;;;-1.04;100.00;96030.66;5111784;28;20231;-85
2021/01/16 03:29:47;;;;;;;12.00;8.93;;;;;;;-1.08;100.00;96028.34;5111803;28;20286;-84
2021/01/16 03:32:15;;;;;;;7.53;6.23;;;;;;;-0.82;100.00;96031.91;5111027;28;20703;-85
2021/01/16 03:34:43;;;;;;;6.83;6.03;;;;;;;-0.80;100.00;96028.28;5111108;28;20203;-86
2021/01/16 03:37:10;;;;;;;9.23;8.33;;;;;;;-0.89;100.00;96022.88;5111490;28;20275;-85
2021/01/16 03:39:38;;;;;;;16.23;11.73;;;;;;;-1.06;100.00;96034.25;5111644;27;20280;-85
2021/01/16 03:42:07;;;;;;;9.07;7.47;;;;;;;-1.22;100.00;96027.41;5111352;28;20257;-85
2021/01/16 03:44:34;;;;;;;8.00;6.87;;;;;;;-1.12;100.00;96032.03;5111420;28;20206;-86
2021/01/16 03:47:01;;;;;;;9.57;6.73;;;;;;;-0.99;100.00;96017.47;5111425;28;20222;-85
2021/01/16 03:49:29;;;;;;;6.73;5.90;;;;;;;-1.12;100.00;96019.13;5111006;28;20288;-85
2021/01/16 03:51:56;;;;;;;14.27;12.53;;;;;;;-1.23;100.00;96020.59;5111022;28;20219;-85
2021/01/16 03:54:23;;;;;;;13.10;10.77;;;;;;;-0.99;100.00;96023.44;5110802;28;20227;-84
2021/01/16 03:56:50;;;;;;;36.47;30.30;;;;;;;-0.96;100.00;96022.44;5110973;28;20183;-85
2021/01/16 03:59:16;;;;;;;20.00;17.63;;;;;;;-1.00;100.00;96024.38;5110929;28;20200;-85
2021/01/16 04:01:44;;;;;;;10.53;9.50;;;;;;;-0.94;100.00;96019.75;5110546;28;20201;-85
2021/01/16 04:04:11;;;;;;;6.60;5.93;;;;;;;-0.91;100.00;96016.97;5111209;28;20284;-85
2021/01/16 04:06:39;;;;;;;5.37;4.87;;;;;;;-1.07;100.00;96022.28;5110816;28;20199;-85
2021/01/16 04:09:06;;;;;;;6.70;6.00;;;;;;;-1.14;100.00;96020.97;5111087;28;20195;-84
2021/01/16 04:11:34;;;;;;;8.67;5.83;;;;;;;-0.98;100.00;96024.28;5109310;28;20191;-85
2021/01/16 04:14:00;;;;;;;7.33;6.63;;;;;;;-0.84;100.00;96020.84;5110579;28;20191;-85
2021/01/16 04:16:27;;;;;;;8.07;7.27;;;;;;;-0.90;100.00;96021.22;5110720;28;20199;-85
2021/01/16 04:18:54;;;;;;;12.27;6.73;;;;;;;-0.87;100.00;96016.69;5110981;28;20365;-85
2021/01/16 04:21:21;;;;;;;9.40;7.77;;;;;;;-0.88;100.00;96020.22;5110974;27;20650;-85
2021/01/16 04:23:49;;;;;;;7.27;6.57;;;;;;;-1.03;100.00;96028.91;5110456;28;20227;-84
2021/01/16 04:26:16;;;;;;;8.23;7.13;;;;;;;-0.97;100.00;96025.91;5110185;28;20703;-85
2021/01/16 04:28:42;;;;;;;7.00;6.30;;;;;;;-1.02;100.00;96018.47;5110795;28;20777;-85
2021/01/16 04:31:09;;;;;;;7.83;6.00;;;;;;;-0.98;100.00;96024.28;5110693;28;20282;-84
2021/01/16 04:33:36;;;;;;;6.53;5.87;;;;;;;-0.97;100.00;96005.28;5111084;28;20219;-85
2021/01/16 04:36:03;;;;;;;9.93;7.07;;;;;;;-0.85;100.00;96014.84;5110742;28;20282;-85
2021/01/16 04:38:30;;;;;;;14.67;11.33;;;;;;;-0.96;100.00;96007.78;5110291;28;20229;-85
2021/01/16 04:40:58;;;;;;;14.70;9.60;;;;;;;-0.79;100.00;96004.16;5110206;28;20195;-84
2021/01/16 04:43:25;;;;;;;10.57;8.73;;;;;;;-0.72;100.00;96008.00;5110375;28;20282;-85
2021/01/16 04:46:00;;;;;;;28.27;19.80;;;;;;;-0.62;100.00;96010.03;5110454;28;20196;-85
2021/01/16 04:48:29;;;;;;;12.83;9.83;;;;;;;-0.82;100.00;96014.66;5110630;28;20563;-84
2021/01/16 04:51:00;;;;;;;8.97;8.10;;;;;;;-0.88;100.00;96001.31;5110283;28;20286;-84
2021/01/16 04:53:36;;;;;;;6.57;5.97;;;;;;;-1.04;100.00;96004.84;5110477;28;20245;-85
2021/01/16 04:56:05;;;;;;;5.03;4.50;;;;;;;-1.14;100.00;96014.06;5110385;28;20249;-85
2021/01/16 04:58:34;;;;;;;5.70;5.20;;;;;;;-0.99;100.00;96018.28;5110567;28;20898;-84
2021/01/16 05:01:04;;;;;;;9.10;8.20;;;;;;;-1.20;100.00;96015.25;5110153;28;20191;-84
2021/01/16 05:03:37;;;;;;;7.27;6.50;;;;;;;-1.14;100.00;96018.38;5110061;28;20215;-85
2021/01/16 05:06:07;;;;;;;7.27;5.63;;;;;;;-1.18;100.00;96011.75;5110225;28;20236;-84
2021/01/16 05:08:37;;;;;;;7.07;5.93;;;;;;;-1.42;100.00;96017.50;5109949;28;20305;-84
2021/01/16 05:11:07;;;;;;;8.93;6.33;;;;;;;-1.39;100.00;96014.72;5110105;28;20195;-85
2021/01/16 05:13:44;;;;;;;8.33;7.53;;;;;;;-1.18;100.00;96012.59;5110413;28;20579;-84
2021/01/16 05:16:13;;;;;;;5.60;5.10;;;;;;;-1.33;100.00;96016.91;5110266;28;20176;-84
2021/01/16 05:18:44;;;;;;;6.47;5.87;;;;;;;-1.64;100.00;96017.91;5110263;28;20199;-84
2021/01/16 05:21:12;;;;;;;7.83;6.60;;;;;;;-1.71;100.00;96022.59;5110603;28;20396;-85
2021/01/16 05:23:43;;;;;;;7.77;5.73;;;;;;;-1.48;100.00;96020.44;5113974;28;20196;-85
2021/01/16 05:26:11;;;;;;;6.20;5.60;;;;;;;-1.62;100.00;96018.66;5114451;28;20206;-85
2021/01/16 05:28:39;;;;;;;6.33;5.70;;;;;;;-1.60;100.00;96018.56;5115509;28;20284;-86
2021/01/16 05:31:29;;;;;;;;;;;;;;;;;;;;;
2021/01/16 05:33:57;;;;;;;9.80;7.10;;;;;;;-1.57;100.00;96015.81;5115867;28;20196;-86
2021/01/16 05:36:23;;;;;;;9.50;7.50;;;;;;;-1.36;100.00;96014.53;5114826;27;20278;-87
2021/01/16 05:38:51;;;;;;;9.30;6.80;;;;;;;-1.42;100.00;96014.91;5114527;28;20191;-88
2021/01/16 05:41:20;;;;;;;13.07;7.93;;;;;;;-1.40;100.00;96007.91;5115361;27;20207;-87
2021/01/16 05:43:46;;;;;;;8.43;6.73;;;;;;;-1.29;100.00;96004.69;5115136;28;20195;-85
2021/01/16 05:46:15;;;;;;;9.50;8.47;;;;;;;-1.29;100.00;96009.84;5114397;28;20283;-85
2021/01/16 05:48:42;;;;;;;9.27;8.33;;;;;;;-1.22;100.00;95999.03;5114221;27;20207;-86
2021/01/16 05:51:09;;;;;;;8.97;7.67;;;;;;;-1.34;100.00;96002.38;5113871;28;20225;-86
2021/01/16 05:53:37;;;;;;;13.30;11.13;;;;;;;-1.29;100.00;95992.59;5114339;28;20272;-87
2021/01/16 05:56:06;;;;;;;8.30;7.50;;;;;;;-1.18;100.00;95993.72;5113993;28;20220;-86
2021/01/16 05:58:35;;;;;;;7.73;6.93;;;;;;;-1.13;100.00;95996.84;5115604;28;20187;-88
2021/01/16 06:01:06;;;;;;;8.07;6.50;;;;;;;-1.21;100.00;96003.31;5114602;28;20195;-86
2021/01/16 06:03:35;;;;;;;7.00;6.30;;;;;;;-1.17;100.00;96003.94;5113380;28;20190;-86
2021/01/16 06:06:02;;;;;;;6.93;6.23;;;;;;;-0.84;100.00;95995.88;5113714;28;20196;-85
2021/01/16 06:08:30;;;;;;;12.63;8.93;;;;;;;-0.85;100.00;95994.22;5113406;28;20223;-85
2021/01/16 06:10:57;;;;;;;8.93;7.80;;;;;;;-1.16;100.00;95990.13;5113066;28;20202;-85
2021/01/16 06:13:26;;;;;;;9.60;7.90;;;;;;;-0.92;100.00;95992.13;5112858;27;20247;-86
2021/01/16 06:15:55;;;;;;;8.47;7.20;;;;;;;-1.09;100.00;95990.56;5112868;28;20667;-86
2021/01/16 06:18:24;;;;;;;8.47;7.67;;;;;;;-1.31;100.00;95999.63;5112790;28;20630;-84
2021/01/16 06:20:57;;;;;;;9.87;8.27;;;;;;;-1.48;100.00;95989.50;5113025;28;20191;-85
2021/01/16 06:23:25;;;;;;;15.40;11.70;;;;;;;-1.58;100.00;95991.78;5112725;28;20196;-86
2021/01/16 06:25:57;;;;;;;12.23;9.33;;;;;;;-1.46;100.00;95988.47;5112899;28;20226;-86
2021/01/16 06:28:25;;;;;;;14.07;11.47;;;;;;;-1.38;100.00;95990.59;5112616;28;20655;-84
2021/01/16 06:30:57;;;;;;;9.23;7.87;;;;;;;-1.41;100.00;95980.47;5113228;28;20244;-87
2021/01/16 06:33:27;;;;;;;11.73;10.23;;;;;;;-1.36;100.00;95986.16;5112717;28;20227;-84
2021/01/16 06:36:01;;;;;;;12.63;9.80;;;;;;;-1.31;100.00;95986.72;5112590;28;20691;-83
2021/01/16 06:38:29;;;;;;;20.50;13.40;;;;;;;-1.05;100.00;95986.88;5112709;28;20266;-85
2021/01/16 06:41:09;;;;;;;13.93;11.10;;;;;;;-0.97;100.00;95984.66;5113330;28;20199;-85
2021/01/16 06:43:39;;;;;;;123.47;61.97;;;;;;;-1.02;100.00;95987.50;5112895;28;20194;-84
2021/01/16 06:46:12;;;;;;;55.83;33.50;;;;;;;-0.97;100.00;95982.91;5113018;28;20574;-85
2021/01/16 06:48:41;;;;;;;37.40;25.33;;;;;;;-0.84;100.00;95992.47;5113213;28;20686;-85
2021/01/16 06:51:22;;;;;;;26.27;17.53;;;;;;;-0.91;100.00;95994.59;5112996;28;20238;-84
2021/01/16 06:53:49;;;;;;;40.67;28.30;;;;;;;-0.90;100.00;95993.69;5112937;28;20203;-84
2021/01/16 06:56:25;;;;;;;10.13;8.50;;;;;;;-0.84;100.00;95995.88;5072564;28;20577;-85
2021/01/16 06:58:56;;;;;;;12.50;11.20;;;;;;;-0.84;100.00;96000.19;5072580;28;20280;-84
2021/01/16 07:01:31;;;;;;;34.73;28.10;;;;;;;-0.75;100.00;96000.47;5072128;28;20197;-85
2021/01/16 07:04:00;;;;;;;13.70;12.07;;;;;;;-0.74;100.00;95998.69;5074766;28;20188;-85
2021/01/16 07:06:27;;;;;;;16.07;12.03;;;;;;;-0.73;100.00;96001.19;5072387;28;20200;-87
2021/01/16 07:08:54;;;;;;;11.77;7.40;;;;;;;-0.84;100.00;96008.75;5073894;28;20193;-88
2021/01/16 07:11:24;;;;;;;8.03;7.07;;;;;;;-1.02;100.00;96007.34;5074248;28;20240;-87
2021/01/16 07:13:51;;;;;;;12.53;8.03;;;;;;;-0.84;100.00;96011.34;5072863;28;20217;-86
2021/01/16 07:16:18;;;;;;;9.37;5.87;;;;;;;-0.78;100.00;96015.31;5074419;28;20224;-86
2021/01/16 07:18:47;;;;;;;6.80;5.80;;;;;;;-0.63;100.00;96013.50;5071934;28;20208;-83
2021/01/16 07:21:13;;;;;;;45.87;33.07;;;;;;;-0.79;100.00;96017.06;5071342;28;20193;-84
2021/01/16 07:23:42;;;;;;;11.63;10.43;;;;;;;-0.86;100.00;96015.78;5070825;28;20197;-84
2021/01/16 07:26:08;;;;;;;7.87;6.33;;;;;;;-0.94;100.00;96018.00;5071218;28;20197;-87
2021/01/16 07:28:37;;;;;;;9.57;6.27;;;;;;;-1.06;100.00;96021.34;5072602;28;20216;-87
2021/01/16 07:31:05;;;;;;;15.17;9.50;;;;;;;-1.08;100.00;96024.00;5072617;28;20274;-87
2021/01/16 07:33:32;;;;;;;7.60;6.90;;;;;;;-0.88;100.00;96022.78;5072353;28;20282;-87
2021/01/16 07:36:04;;;;;;;7.87;6.77;;;;;;;-0.95;100.00;96024.09;5071612;28;20280;-87
2021/01/16 07:38:34;;;;;;;5.90;5.30;;;;;;;-0.57;100.00;96018.28;5071991;28;20631;-86
2021/01/16 07:41:09;;;;;;;6.47;5.87;;;;;;;-0.75;100.00;96021.09;5072058;28;20200;-87
2021/01/16 07:44:06;;;;;;;7.40;5.73;;;;;;;-0.62;100.00;96028.91;5072484;28;20564;-88
2021/01/16 07:46:33;;;;;;;8.87;6.13;;;;;;;-0.67;100.00;96027.53;5071941;28;20197;-87
2021/01/16 07:49:01;;;;;;;7.67;6.67;;;;;;;-0.52;100.00;96027.41;5072167;28;20203;-87
2021/01/16 07:51:34;;;;;;;5.83;5.23;;;;;;;-0.69;100.00;96027.66;5072610;28;20198;-88
2021/01/16 07:54:06;;;;;;;5.70;4.87;;;;;;;-0.79;100.00;96040.28;5075075;28;20201;-88
2021/01/16 08:00:24;;;;;;;;;;;;;;;;;;;;;
2021/01/16 08:10:00;;;;;;;7.07;5.20;;;;;;;-0.23;100.00;96057.47;4912353;29;20207;-86
2021/01/16 08:12:30;;;;;;;13.13;4.47;;;;;;;-0.18;100.00;96055.41;4934656;29;20229;-87
2021/01/16 08:15:02;;;;;;;4.60;4.20;;;;;;;-0.43;100.00;96056.16;4989069;28;20207;-86
2021/01/16 08:17:39;;;;;;;6.03;5.23;;;;;;;-0.52;100.00;96049.78;5009167;28;20206;-86
2021/01/16 08:20:16;;;;;;;7.73;5.70;;;;;;;-0.99;100.00;96062.16;5009663;28;20203;-86
2021/01/16 08:22:51;;;;;;;7.23;6.53;;;;;;;-0.85;100.00;96060.47;5010156;28;20656;-87
2021/01/16 08:25:26;;;;;;;20.60;18.70;;;;;;;-0.48;100.00;96051.28;5010184;28;20202;-85
2021/01/16 08:27:55;;;;;;;13.53;10.47;;;;;;;-0.18;100.00;96056.25;5009161;28;20180;-89
2021/01/16 08:30:24;;;;;;;5.73;5.00;;;;;;;-0.35;100.00;96056.50;5009272;28;20269;-87
2021/01/16 08:32:58;;;;;;;5.77;5.17;;;;;;;-0.68;100.00;96046.53;5008947;28;20227;-85
2021/01/16 08:35:27;;;;;;;6.20;5.53;;;;;;;-0.66;100.00;96044.66;5024560;28;20726;-86
2021/01/16 08:37:54;;;;;;;5.63;5.03;;;;;;;-0.32;100.00;96039.03;5028495;28;20198;-90
2021/01/16 08:40:37;;;;;;;5.50;4.40;;;;;;;-0.16;100.00;96045.84;5102285;28;20333;-86
2021/01/16 08:43:04;;;;;;;6.63;4.40;;;;;;;-0.80;100.00;96046.34;5109908;28;20282;-85
2021/01/16 08:45:31;;;;;;;6.23;5.27;;;;;;;-0.56;100.00;96044.00;5110254;28;20291;-86
2021/01/16 08:47:59;;;;;;;4.10;3.80;;;;;;;-0.21;100.00;96040.94;5110302;28;20283;-85
2021/01/16 08:50:29;;;;;;;4.67;4.27;;;;;;;-0.39;100.00;96037.78;5110134;28;20282;-86
2021/01/16 08:52:56;;;;;;;5.33;4.10;;;;;;;-0.38;100.00;96034.28;5109781;28;20239;-86
2021/01/16 08:55:28;;;;;;;5.87;5.03;;;;;;;-0.53;100.00;96030.91;5110565;28;20226;-85
2021/01/16 08:58:09;;;;;;;5.00;4.60;;;;;;;-0.57;100.00;96028.63;5112242;28;20258;-84
2021/01/16 09:00:38;;;;;;;6.63;5.80;;;;;;;-0.59;100.00;96031.31;5114546;28;20279;-87
2021/01/16 09:03:07;;;;;;;6.00;5.40;;;;;;;-0.65;100.00;96031.69;5114057;28;20618;-85
2021/01/16 09:05:35;;;;;;;7.00;5.50;;;;;;;-0.68;100.00;96024.13;5114919;28;20282;-87
2021/01/16 09:08:02;;;;;;;7.17;5.07;;;;;;;-0.32;100.00;96027.88;5115174;27;20221;-86
2021/01/16 09:10:34;;;;;;;6.57;5.47;;;;;;;0.06;100.00;96016.84;5115069;28;20239;-88
2021/01/16 09:13:01;;;;;;;10.77;8.97;;;;;;;0.20;100.00;96014.16;5114423;28;20330;-86
2021/01/16 09:15:35;;;;;;;6.93;5.67;;;;;;;0.15;100.00;96017.06;5114368;28;20631;-87
2021/01/16 09:18:12;;;;;;;6.77;6.13;;;;;;;0.01;100.00;96017.16;5114383;28;20207;-87
2021/01/16 09:20:41;;;;;;;6.67;5.60;;;;;;;0.65;100.00;96005.09;5114936;28;20196;-87
2021/01/16 09:23:28;;;;;;;6.50;5.50;;;;;;;0.46;100.00;96004.69;5114523;28;20739;-85
2021/01/16 09:25:57;;;;;;;7.43;5.77;;;;;;;0.48;100.00;95997.63;5113959;28;20238;-86
2021/01/16 09:28:43;;;;;;;7.23;5.83;;;;;;;0.92;100.00;95988.63;5114971;28;20576;-86
2021/01/16 09:31:18;;;;;;;6.13;5.37;;;;;;;0.87;100.00;95990.72;5114111;28;20188;-85
2021/01/16 09:33:46;;;;;;;6.67;5.97;;;;;;;0.90;100.00;95987.88;5113994;27;20304;-85
2021/01/16 09:36:13;;;;;;;6.40;5.40;;;;;;;0.92;100.00;95986.84;5113756;27;20589;-86
2021/01/16 09:38:39;;;;;;;5.93;5.20;;;;;;;1.29;100.00;95980.88;5114443;28;20275;-88
2021/01/16 09:41:06;;;;;;;5.80;5.30;;;;;;;1.43;100.00;95980.72;5114486;28;20184;-87
2021/01/16 09:43:41;;;;;;;6.00;5.37;;;;;;;1.08;100.00;95975.44;5115038;27;20219;-88
2021/01/16 09:46:09;;;;;;;4.53;4.07;;;;;;;1.04;100.00;95972.25;5114539;28;20206;-87
2021/01/16 09:48:45;;;;;;;6.13;5.63;;;;;;;0.83;100.00;95969.41;5114831;28;20251;-87
2021/01/16 09:51:14;;;;;;;8.03;6.00;;;;;;;1.57;100.00;95961.59;5114755;28;20180;-87
2021/01/16 09:53:42;;;;;;;6.50;5.23;;;;;;;1.79;100.00;95958.25;5114675;28;20870;-86
2021/01/16 09:56:08;;;;;;;5.53;4.60;;;;;;;2.17;100.00;95955.41;5114511;28;20219;-88
2021/01/16 09:58:40;;;;;;;5.40;4.60;;;;;;;2.40;100.00;95956.28;5114676;28;20278;-88
2021/01/16 10:01:22;;;;;;;6.37;5.00;;;;;;;2.87;100.00;95954.41;5115040;28;20784;-88
2021/01/16 10:03:51;;;;;;;6.93;6.03;;;;;;;3.57;100.00;95950.63;5115133;28;20192;-88
2021/01/16 10:06:19;;;;;;;7.47;4.53;;;;;;;2.67;100.00;95949.91;5115552;27;20204;-87
2021/01/16 10:08:46;;;;;;;6.17;5.07;;;;;;;3.17;100.00;95946.00;5112963;28;20269;-86
2021/01/16 10:11:15;;;;;;;6.73;5.17;;;;;;;2.10;100.00;95939.50;5112620;28;20699;-86
2021/01/16 10:13:42;;;;;;;8.30;7.27;;;;;;;2.04;100.00;95936.53;5114399;28;20995;-88
2021/01/16 10:16:11;;;;;;;7.33;6.20;;;;;;;2.07;100.00;95939.72;5114368;27;20195;-86
2021/01/16 10:18:39;;;;;;;5.63;5.03;;;;;;;1.97;100.00;95936.16;5113838;27;20202;-87
2021/01/16 10:21:11;;;;;;;5.03;4.53;;;;;;;1.48;100.00;95931.97;5113960;27;20210;-88
2021/01/16 10:23:40;;;;;;;5.37;4.60;;;;;;;1.45;100.00;95928.78;5114268;28;20200;-88
2021/01/16 10:29:20;;;;;;;5.33;4.80;;;;;;;1.12;100.00;95914.75;5088211;28;20199;-88
2021/01/16 10:34:52;;;;;;;18.77;17.07;;;;;;;1.28;100.00;95910.16;5115465;27;20223;-87
2021/01/16 10:37:29;;;;;;;9.70;6.67;;;;;;;1.26;100.00;95912.00;5115012;28;20300;-87
2021/01/16 10:40:03;;;;;;;5.47;4.97;;;;;;;1.18;100.00;95904.78;5114744;27;20222;-88
2021/01/16 10:42:41;;;;;;;5.30;4.77;;;;;;;0.88;100.00;95909.56;5114067;28;20191;-87
2021/01/16 10:45:09;;;;;;;9.17;6.23;;;;;;;0.78;100.00;95909.38;5113621;28;20187;-87
2021/01/16 10:47:37;;;;;;;7.50;6.20;;;;;;;1.03;100.00;95892.94;5114204;28;20250;-88
2021/01/16 10:50:10;;;;;;;12.77;5.37;;;;;;;0.95;100.00;95890.06;5113425;28;20195;-87
2021/01/16 10:52:39;;;;;;;5.83;5.10;;;;;;;0.79;100.00;95892.09;5113686;28;20211;-87
2021/01/16 10:55:08;;;;;;;9.10;6.93;;;;;;;0.92;100.00;95887.69;5113391;28;20266;-86
2021/01/16 10:57:47;;;;;;;8.40;6.87;;;;;;;0.85;100.00;95889.88;5113369;28;20191;-87
2021/01/16 11:00:19;;;;;;;8.33;6.87;;;;;;;0.78;100.00;95877.50;5116048;28;20600;-87
2021/01/16 11:02:48;;;;;;;8.63;6.77;;;;;;;0.68;100.00;95879.91;5113374;28;20186;-87
2021/01/16 11:05:26;;;;;;;10.60;7.13;;;;;;;0.89;100.00;95869.81;5118114;28;20252;-89
2021/01/16 11:07:59;;;;;;;11.80;7.50;;;;;;;1.16;100.00;95869.59;5118451;28;20183;-87
2021/01/16 11:10:34;;;;;;;7.97;6.30;;;;;;;1.07;100.00;95867.66;5116087;27;20606;-85
2021/01/16 11:13:27;;;;;;;8.80;7.37;;;;;;;0.97;100.00;95872.69;5118219;28;20206;-88
2021/01/16 11:15:57;;;;;;;8.63;7.73;;;;;;;0.94;100.00;95865.97;5099798;28;20567;-87
2021/01/16 11:18:32;;;;;;;9.90;7.90;;;;;;;0.87;100.00;95869.94;5117830;28;20244;-87
2021/01/16 11:21:01;;;;;;;8.67;7.47;;;;;;;0.79;100.00;95859.28;5122267;28;20265;-87
2021/01/16 11:23:50;;;;;;;10.33;7.40;;;;;;;1.05;100.00;95836.72;5118001;28;20290;-88
2021/01/16 11:26:18;;;;;;;9.40;7.53;;;;;;;0.85;100.00;95839.91;5116945;28;20195;-86
2021/01/16 11:28:55;;;;;;;7.50;6.53;;;;;;;0.93;100.00;95837.59;5122994;28;20297;-88
2021/01/16 11:31:31;;;;;;;5.53;4.80;;;;;;;1.13;100.00;95836.97;5120499;28;20278;-88
2021/01/16 11:34:28;;;;;;;8.73;7.20;;;;;;;1.27;100.00;95835.97;5122241;28;20610;-89
2021/01/16 11:37:04;;;;;;;6.57;5.93;;;;;;;1.25;100.00;95827.50;5124920;28;20215;-88
2021/01/16 11:39:51;;;;;;;7.80;5.90;;;;;;;0.98;100.00;95825.16;5123751;28;20715;-87
2021/01/16 11:42:19;;;;;;;5.43;4.63;;;;;;;1.21;100.00;95826.06;5125387;28;20206;-87
2021/01/16 11:44:55;;;;;;;7.03;6.33;;;;;;;1.40;100.00;95810.03;5124336;28;20200;-87
2021/01/16 11:47:23;;;;;;;10.30;8.30;;;;;;;0.94;100.00;95813.38;5120031;28;20655;-88
2021/01/16 11:49:49;;;;;;;6.40;5.67;;;;;;;0.76;100.00;95814.69;5112649;28;20203;-87
2021/01/16 11:52:17;;;;;;;7.40;5.40;;;;;;;0.82;100.00;95804.72;5111834;28;20244;-87
2021/01/16 11:54:44;;;;;;;6.20;4.77;;;;;;;0.63;100.00;95809.59;5111913;28;20323;-88
2021/01/16 11:57:12;;;;;;;6.77;5.07;;;;;;;0.67;100.00;95814.41;5111496;28;20635;-88